Village of the Hills, Texas
Current Conditions -  °F | °C
As of 12:35 PM on Thursday 30 Oct 2014 (Local Time) from KRYW Reporting Station
Broken Clouds Broken Clouds  
Wind Chill: 74°   Ceiling: 2400
Heat Index: 74°   Visibility: 10mi
Dew Point: 57°   Wind: 0mph
Humidity: 54%   Direction: NA
Pressure: 30.16"   Gusts: NA
Location:  30.3192°N, 98.0276°W
Report Text: KRYW 301735Z AUTO 00000KT 10SM BKN024 23/14 A3016 RMK AO2 T02340137
Loading
Personal Weather Stations






























Interactive Weather Map
Tropical Storm Tracking
New forecast layout! Learn more

10-Day Weather Forecast

Advertisements
Track Severe Weather on mobile